createdAt,value
2022-12-12T00:01:37.040Z,12.82
2022-12-12T00:07:40.525Z,13.35
2022-12-12T00:13:42.876Z,13.63
2022-12-12T00:19:44.694Z,13.07
2022-12-12T00:25:54.847Z,13.32
2022-12-12T00:31:56.740Z,13.82
2022-12-12T00:37:58.568Z,14.43
2022-12-12T00:44:00.424Z,14.27
2022-12-12T00:50:02.362Z,15.27
2022-12-12T00:56:05.385Z,15.43
2022-12-12T01:02:07.324Z,14.90
2022-12-12T01:08:09.362Z,13.15
2022-12-12T01:14:11.296Z,14.70
2022-12-12T01:20:22.486Z,14.65
2022-12-12T01:26:25.171Z,15.77
2022-12-12T01:32:27.319Z,12.93
2022-12-12T01:38:29.261Z,13.00
2022-12-12T01:44:47.948Z,15.45
2022-12-12T01:50:50.915Z,13.75
2022-12-12T01:56:54.803Z,12.73
2022-12-12T02:02:57.335Z,13.05
2022-12-12T02:09:03.167Z,13.00
2022-12-12T02:15:05.593Z,12.27
2022-12-12T02:21:18.955Z,12.48
2022-12-12T02:27:39.668Z,12.68
2022-12-12T02:33:44.622Z,13.50
2022-12-12T02:39:55.387Z,14.98
2022-12-12T02:46:21.193Z,13.43
2022-12-12T02:52:24.284Z,13.88
2022-12-12T02:58:26.309Z,13.88
2022-12-12T03:05:15.401Z,13.77
2022-12-12T03:11:39.975Z,14.35
2022-12-12T03:17:49.275Z,14.55
2022-12-12T03:24:02.432Z,13.88
2022-12-12T03:30:11.657Z,15.38
2022-12-12T03:36:21.566Z,15.35
2022-12-12T03:42:34.888Z,16.80
2022-12-12T03:49:29.072Z,15.13
2022-12-12T03:55:45.567Z,15.07
2022-12-12T04:08:08.954Z,16.65
2022-12-12T04:14:29.198Z,15.13
2022-12-12T04:21:23.612Z,16.67
2022-12-12T04:27:43.416Z,15.85
2022-12-12T04:33:51.103Z,15.73
2022-12-12T04:39:56.735Z,18.17
2022-12-12T04:46:09.558Z,17.90
2022-12-12T04:52:13.926Z,22.25
2022-12-12T04:58:15.959Z,18.23
2022-12-12T05:04:27.680Z,16.13
2022-12-12T05:10:30.058Z,16.35
2022-12-12T05:16:38.001Z,18.73
2022-12-12T05:22:40.272Z,19.63
2022-12-12T05:28:42.375Z,19.30
2022-12-12T05:34:44.367Z,20.33
2022-12-12T05:40:46.301Z,20.45
2022-12-12T05:46:53.088Z,20.85
2022-12-12T05:52:55.919Z,19.38
2022-12-12T05:58:58.034Z,18.67
2022-12-12T06:04:59.887Z,17.48
2022-12-12T06:11:06.348Z,17.98
2022-12-12T06:17:08.597Z,19.08
2022-12-12T06:23:10.552Z,20.00
2022-12-12T06:29:14.806Z,20.42
2022-12-12T06:35:17.370Z,18.52
2022-12-12T06:41:22.739Z,18.90
2022-12-12T06:47:24.655Z,20.60
2022-12-12T06:53:26.533Z,19.27
2022-12-12T06:59:29.580Z,20.05
2022-12-12T07:05:31.697Z,19.90
2022-12-12T07:11:33.559Z,21.92
2022-12-12T07:17:35.430Z,20.13
2022-12-12T07:23:37.306Z,19.67
2022-12-12T07:29:39.132Z,21.60
2022-12-12T07:35:41.769Z,22.50
2022-12-12T07:41:43.594Z,20.45
2022-12-12T07:47:45.776Z,22.50
2022-12-12T07:53:48.080Z,21.73
2022-12-12T07:59:49.918Z,21.50
2022-12-12T08:05:51.738Z,20.73
2022-12-12T08:11:58.362Z,22.00
2022-12-12T08:18:00.262Z,24.15
2022-12-12T08:24:02.794Z,25.27
2022-12-12T08:30:05.194Z,24.63
2022-12-12T08:36:22.316Z,23.77
2022-12-12T08:42:24.262Z,23.83
2022-12-12T08:48:26.092Z,22.83
2022-12-12T08:54:27.925Z,23.73
2022-12-12T09:00:29.789Z,23.05
2022-12-12T09:06:31.572Z,22.40
2022-12-12T09:12:38.362Z,23.17
2022-12-12T09:18:48.705Z,22.70
2022-12-12T09:24:51.105Z,23.17
2022-12-12T09:30:53.057Z,23.35
2022-12-12T09:36:55.059Z,23.52
2022-12-12T09:42:57.001Z,24.77
2022-12-12T09:49:05.082Z,25.58
2022-12-12T09:55:20.458Z,27.50
2022-12-12T10:01:36.866Z,25.20
2022-12-12T10:07:46.444Z,27.90
2022-12-12T10:13:48.398Z,25.52
2022-12-12T10:19:54.658Z,24.67
2022-12-12T10:26:01.559Z,24.95
2022-12-12T10:32:25.778Z,23.92
2022-12-12T10:38:45.017Z,24.63
2022-12-12T10:45:13.399Z,23.30
2022-12-12T10:51:19.889Z,23.42
2022-12-12T10:57:25.037Z,22.00
2022-12-12T11:03:35.543Z,21.38
2022-12-12T11:09:45.438Z,20.35
2022-12-12T11:16:02.211Z,21.70
2022-12-12T11:22:04.907Z,20.95
2022-12-12T11:28:07.165Z,21.90
2022-12-12T11:34:14.149Z,21.42
2022-12-12T11:40:26.430Z,21.80
2022-12-12T11:46:30.683Z,20.88
2022-12-12T11:52:33.800Z,21.02
2022-12-12T11:58:45.464Z,20.10
2022-12-12T12:05:20.711Z,19.92
2022-12-12T12:11:49.407Z,20.08
2022-12-12T12:17:55.349Z,19.45
2022-12-12T12:24:32.250Z,17.77
2022-12-12T12:30:58.016Z,16.77
2022-12-12T12:37:18.779Z,17.40
2022-12-12T12:43:52.031Z,17.60
2022-12-12T12:50:03.058Z,17.38
2022-12-12T12:56:28.043Z,18.23
2022-12-12T13:02:51.534Z,17.85
2022-12-12T13:09:18.110Z,17.85
2022-12-12T13:15:29.127Z,17.85
2022-12-12T13:21:59.084Z,17.27
2022-12-12T13:28:06.613Z,17.17
2022-12-12T13:34:21.726Z,18.67
2022-12-12T13:40:31.352Z,17.92
2022-12-12T13:46:40.615Z,17.58
2022-12-12T13:52:43.139Z,16.75
2022-12-12T13:58:44.988Z,16.00
2022-12-12T14:04:47.372Z,17.80
2022-12-12T14:10:49.371Z,19.48
2022-12-12T14:16:54.507Z,16.98
2022-12-12T14:22:59.099Z,17.73
2022-12-12T14:29:16.308Z,17.60
2022-12-12T14:35:43.427Z,16.40
2022-12-12T14:41:56.165Z,16.65
2022-12-12T14:48:29.162Z,16.92
2022-12-12T14:54:31.595Z,15.30
2022-12-12T15:00:33.539Z,14.55
2022-12-12T15:06:41.183Z,16.40
2022-12-12T15:12:46.178Z,15.95
2022-12-12T15:18:52.725Z,18.95
2022-12-12T15:24:56.534Z,18.10
2022-12-12T15:30:58.684Z,19.48
2022-12-12T15:37:18.124Z,19.25
2022-12-12T15:43:25.488Z,19.27
2022-12-12T15:49:43.009Z,21.63
2022-12-12T15:56:15.510Z,23.13
2022-12-12T16:02:25.427Z,21.95
2022-12-12T16:08:36.036Z,20.80
2022-12-12T16:14:49.914Z,22.45
2022-12-12T16:21:00.384Z,23.88
2022-12-12T16:27:17.509Z,24.45
2022-12-12T16:33:21.938Z,22.63
2022-12-12T16:39:23.982Z,23.17
2022-12-12T16:45:26.012Z,23.92
2022-12-12T16:51:28.835Z,22.30
2022-12-12T16:57:30.648Z,22.42
2022-12-12T17:03:34.109Z,21.48
2022-12-12T17:09:36.587Z,23.17
2022-12-12T17:15:39.939Z,19.65
2022-12-12T17:21:46.198Z,22.25
2022-12-12T17:27:48.430Z,21.60
2022-12-12T17:33:51.502Z,22.45
2022-12-12T17:39:53.586Z,24.30
2022-12-12T17:46:00.613Z,23.75
2022-12-12T17:52:08.677Z,24.17
2022-12-12T17:58:13.028Z,23.70
2022-12-12T18:04:14.882Z,23.25
2022-12-12T18:10:19.960Z,21.20
2022-12-12T18:16:24.640Z,21.25
2022-12-12T18:22:33.682Z,23.13
2022-12-12T18:28:39.191Z,23.52
2022-12-12T18:34:42.385Z,24.37
2022-12-12T18:40:44.227Z,23.20
2022-12-12T18:46:46.199Z,23.10
2022-12-12T18:52:48.194Z,22.02
2022-12-12T18:58:51.937Z,19.33
2022-12-12T19:04:54.306Z,23.27
2022-12-12T19:10:56.271Z,22.25
2022-12-12T19:16:58.243Z,20.88
2022-12-12T19:23:00.172Z,21.48
2022-12-12T19:29:07.940Z,22.85
2022-12-12T19:35:11.259Z,26.38
2022-12-12T19:41:15.082Z,27.42
2022-12-12T19:47:19.379Z,27.88
2022-12-12T19:53:21.454Z,25.08
2022-12-12T19:59:23.286Z,23.10
2022-12-12T20:05:25.558Z,23.70
2022-12-12T20:11:27.663Z,24.70
2022-12-12T20:17:32.217Z,28.02
2022-12-12T20:23:36.446Z,28.20
2022-12-12T20:29:38.314Z,29.30
2022-12-12T20:35:40.326Z,28.65
2022-12-12T20:41:43.664Z,26.65
2022-12-12T20:47:46.830Z,24.27
2022-12-12T20:53:50.672Z,27.58
2022-12-12T20:59:58.689Z,28.60
2022-12-12T21:06:01.282Z,29.67
2022-12-12T21:12:03.955Z,29.95
2022-12-12T21:18:06.928Z,28.70
2022-12-12T21:24:11.588Z,31.13
2022-12-12T21:30:24.971Z,29.35
2022-12-12T21:36:40.087Z,26.38
2022-12-12T21:42:44.578Z,24.98
2022-12-12T21:48:47.062Z,25.33
2022-12-12T21:54:48.921Z,26.50
2022-12-12T22:00:50.728Z,24.50
2022-12-12T22:06:52.630Z,23.95
2022-12-12T22:12:57.108Z,23.40
2022-12-12T22:19:06.074Z,21.00
2022-12-12T22:25:08.442Z,22.85
2022-12-12T22:31:11.121Z,24.73
2022-12-12T22:37:13.053Z,24.25
2022-12-12T22:43:14.885Z,23.45
2022-12-12T22:49:20.094Z,24.30
2022-12-12T22:55:21.938Z,23.10
2022-12-12T23:01:24.638Z,21.67
2022-12-12T23:07:26.473Z,22.67
2022-12-12T23:13:28.274Z,21.35
2022-12-12T23:19:30.454Z,21.20
2022-12-12T23:25:32.257Z,21.88
2022-12-12T23:31:37.091Z,23.33
2022-12-12T23:37:38.973Z,23.50
2022-12-12T23:43:41.995Z,25.48
2022-12-12T23:49:43.865Z,21.85
2022-12-12T23:55:45.675Z,19.13
